Nevsehir, Turkey
Current Conditions -  °F | °C
As of 9:50 AM on Friday 31 Oct 2014 (Local Time) from LTAZ Reporting Station
Broken Clouds Broken Clouds  
Wind Chill: 11°   Ceiling: 3000
Heat Index: 11°   Visibility: 6mi
Dew Point:   Wind: 2mph
Humidity: 82%   Direction: NA
Pressure: 29.97"   Gusts: NA
Location:  38.63°N, 34.72°E
Report Text: LTAZ 310650Z VRB02KT 9999 SCT017 BKN030 11/08 Q1015
Loading
Personal Weather Stations






























Interactive Weather Map
Tropical Storm Tracking
New forecast layout! Learn more

10-Day Weather Forecast

Advertisements
Track Severe Weather on mobile